Time;durP1;ratioP1;P1;durP2;ratioP2;P2;SDS_P1;SDS_P2;PMS_P1;PMS_P2;Temp;Humidity;BMP_temperature;BMP_pressure;BME280_temperature;BME280_humidity;BME280_pressure;Samples;Min_cycle;Max_cycle;Signal;HPM_P1;HPM_P2
2022/08/10 00:01:29;;;;;;;1.80;1.70;;;21.40;49.20;;;;;;5081226;28;20020;-73
2022/08/10 00:03:56;;;;;;;2.42;1.83;;;21.30;49.80;;;;;;5062748;28;20028;-77
2022/08/10 00:06:21;;;;;;;1.60;1.50;;;21.30;49.40;;;;;;5083204;28;20045;-78
2022/08/10 00:08:47;;;;;;;2.28;1.88;;;21.20;49.20;;;;;;5062598;28;20035;-73
2022/08/10 00:11:13;;;;;;;3.00;2.05;;;21.20;49.30;;;;;;5083303;28;20028;-74
2022/08/10 00:13:39;;;;;;;2.30;2.10;;;21.20;49.40;;;;;;5061874;28;20278;-76
2022/08/10 00:16:05;;;;;;;3.53;2.22;;;21.20;49.50;;;;;;5081003;28;20486;-72
2022/08/10 00:18:31;;;;;;;2.08;1.90;;;21.10;49.40;;;;;;5080018;28;20379;-73
2022/08/10 00:20:57;;;;;;;2.85;2.30;;;21.00;49.30;;;;;;5062777;28;20115;-76
2022/08/10 00:23:23;;;;;;;3.65;1.92;;;21.00;49.40;;;;;;5078011;28;20085;-73
2022/08/10 00:25:49;;;;;;;1.90;1.75;;;20.90;49.30;;;;;;5082238;28;20028;-77
2022/08/10 00:28:15;;;;;;;2.97;2.22;;;20.90;49.40;;;;;;5059406;28;20625;-76
2022/08/10 00:30:41;;;;;;;4.03;2.13;;;20.90;49.50;;;;;;5080389;28;20032;-74
2022/08/10 00:33:07;;;;;;;2.47;2.28;;;20.90;49.60;;;;;;5077133;28;20028;-74
2022/08/10 00:35:33;;;;;;;2.55;1.95;;;20.80;49.50;;;;;;5081762;28;20038;-74
2022/08/10 00:37:59;;;;;;;3.33;2.00;;;20.70;49.50;;;;;;5081223;28;20070;-73
2022/08/10 00:40:25;;;;;;;2.63;2.03;;;20.80;49.70;;;;;;5079534;28;20024;-75
2022/08/10 00:42:51;;;;;;;3.03;1.95;;;20.70;49.70;;;;;;5063786;28;20034;-74
2022/08/10 00:45:17;;;;;;;2.08;1.88;;;20.70;49.80;;;;;;5082837;28;20478;-78
2022/08/10 00:47:43;;;;;;;3.17;2.13;;;20.70;49.80;;;;;;5079021;28;20035;-74
2022/08/10 00:50:09;;;;;;;2.47;1.80;;;20.60;49.80;;;;;;5061708;28;20046;-76
2022/08/10 00:52:36;;;;;;;2.63;2.42;;;20.60;49.90;;;;;;5077831;28;20399;-74
2022/08/10 00:55:04;;;;;;;4.07;2.30;;;20.60;50.00;;;;;;5061897;28;20304;-74
2022/08/10 00:57:34;;;;;;;5.03;2.70;;;20.50;49.90;;;;;;5061302;22;20139;-90
2022/08/10 01:00:00;;;;;;;3.38;2.38;;;20.50;50.00;;;;;;5027157;28;20133;-93
2022/08/10 01:02:30;;;;;;;14.13;2.28;;;20.50;50.00;;;;;;5025806;28;20018;-92
2022/08/10 01:05:02;;;;;;;2.55;2.03;;;20.50;50.10;;;;;;5017214;28;20037;-90
2022/08/10 01:07:57;;;;;;;2.20;1.90;;;20.40;50.10;;;;;;5031246;28;20038;-88
2022/08/10 01:10:37;;;;;;;2.55;2.20;;;20.40;50.90;;;;;;5013782;28;20037;-93
2022/08/10 01:13:39;;;;;;;2.10;1.80;;;20.40;50.30;;;;;;5023187;28;20035;-92
2022/08/10 01:16:19;;;;;;;3.45;2.42;;;20.40;50.50;;;;;;5011443;28;20028;-91
2022/08/10 01:19:36;;;;;;;1.90;1.80;;;20.40;50.50;;;;;;5027226;28;20029;-90
2022/08/10 01:22:18;;;;;;;2.30;2.10;;;20.40;50.60;;;;;;4984801;28;20144;-93
2022/08/10 01:24:47;;;;;;;2.47;2.17;;;20.40;50.60;;;;;;4994505;28;20081;-93
2022/08/10 01:27:34;;;;;;;3.47;1.90;;;20.40;50.60;;;;;;5030365;28;20029;-92
2022/08/10 01:30:03;;;;;;;5.65;1.98;;;20.40;50.70;;;;;;5029015;28;20037;-90
2022/08/10 01:32:37;;;;;;;3.42;2.50;;;20.40;50.70;;;;;;5033765;28;20021;-93
2022/08/10 01:35:26;;;;;;;2.85;1.90;;;20.40;50.80;;;;;;5016059;28;20113;-91
2022/08/10 01:38:04;;;;;;;2.42;2.00;;;20.40;51.00;;;;;;5021678;28;20133;-92
2022/08/10 01:40:34;;;;;;;2.10;1.90;;;20.40;51.00;;;;;;5033220;28;20369;-92
2022/08/10 01:43:03;;;;;;;4.20;2.60;;;20.40;51.70;;;;;;5039026;28;20045;-93
2022/08/10 01:45:30;;;;;;;2.78;2.10;;;20.30;51.00;;;;;;5024771;28;20093;-95
2022/08/10 01:50:51;;;;;;;4.10;1.80;;;20.30;51.20;;;;;;5023701;28;20532;-93
2022/08/10 01:53:22;;;;;;;4.35;2.38;;;20.30;51.30;;;;;;5021836;28;20243;-95
2022/08/10 01:55:52;;;;;;;2.00;1.63;;;20.30;51.40;;;;;;5012087;28;20028;-94
2022/08/10 01:58:21;;;;;;;3.33;1.85;;;20.30;51.40;;;;;;5024040;28;20043;-91
2022/08/10 02:00:50;;;;;;;3.08;1.90;;;20.20;51.30;;;;;;5021058;28;20030;-88
2022/08/10 02:03:18;;;;;;;2.70;1.77;;;20.20;51.40;;;;;;5021682;28;20482;-91
2022/08/10 02:05:46;;;;;;;1.92;1.83;;;20.20;52.10;;;;;;5005971;28;20354;-90
2022/08/10 02:08:15;;;;;;;3.00;1.88;;;20.20;51.60;;;;;;5002506;28;20105;-89
2022/08/10 02:10:44;;;;;;;2.25;1.80;;;20.20;51.60;;;;;;5030692;28;20056;-89
2022/08/10 02:13:12;;;;;;;3.55;1.70;;;20.20;51.70;;;;;;4985949;28;20047;-91
2022/08/10 02:15:40;;;;;;;3.45;1.98;;;20.10;51.60;;;;;;5040538;28;20116;-90
2022/08/10 02:18:08;;;;;;;2.55;1.73;;;20.10;51.60;;;;;;5024688;28;20029;-89
2022/08/10 02:20:42;;;;;;;2.75;1.98;;;20.10;51.70;;;;;;4981431;28;20033;-89
2022/08/10 02:23:13;;;;;;;4.50;2.33;;;20.20;52.00;;;;;;5004065;28;20563;-89
2022/08/10 02:25:40;;;;;;;4.72;2.13;;;20.10;51.80;;;;;;5000521;28;20025;-90
2022/08/10 02:28:07;;;;;;;3.85;1.70;;;20.10;51.80;;;;;;5019467;28;20431;-89
2022/08/10 02:30:35;;;;;;;3.03;1.88;;;20.00;51.80;;;;;;4997257;28;20036;-88
2022/08/10 02:33:03;;;;;;;2.67;2.00;;;20.00;51.80;;;;;;5020467;28;20097;-90
2022/08/10 02:35:31;;;;;;;2.60;2.15;;;20.00;52.00;;;;;;5032560;28;20052;-92
2022/08/10 02:38:03;;;;;;;2.28;2.08;;;20.00;52.00;;;;;;5026854;28;20052;-90
2022/08/10 02:40:37;;;;;;;4.78;2.20;;;20.00;52.10;;;;;;5035710;28;20050;-91
2022/08/10 02:43:27;;;;;;;2.42;2.08;;;19.90;52.00;;;;;;5051069;28;20087;-90
2022/08/10 02:45:59;;;;;;;2.40;1.75;;;19.90;52.20;;;;;;5044375;28;20055;-92
2022/08/10 02:48:39;;;;;;;4.53;2.75;;;19.90;52.10;;;;;;5031716;28;20033;-89
2022/08/10 02:51:30;;;;;;;2.10;1.90;;;19.80;52.10;;;;;;5005003;28;20026;-87
2022/08/10 02:54:04;;;;;;;2.17;1.70;;;19.80;52.10;;;;;;4987711;28;20037;-87
2022/08/10 02:56:42;;;;;;;2.10;1.80;;;19.80;52.30;;;;;;5003563;28;20056;-88
2022/08/10 02:59:13;;;;;;;2.50;1.92;;;19.70;52.20;;;;;;5035236;28;20112;-88
2022/08/10 03:01:45;;;;;;;2.50;1.80;;;19.70;52.20;;;;;;5023475;28;20025;-95
2022/08/10 03:04:18;;;;;;;3.35;2.05;;;19.70;52.40;;;;;;5023315;28;20178;-93
2022/08/10 03:06:53;;;;;;;2.97;1.98;;;19.70;52.50;;;;;;5007525;28;20120;-94
2022/08/10 03:09:21;;;;;;;2.20;1.80;;;19.60;52.90;;;;;;5034894;28;20114;-88
2022/08/10 03:11:48;;;;;;;2.92;2.10;;;19.60;52.40;;;;;;5031470;28;20029;-87
2022/08/10 03:14:15;;;;;;;3.15;2.03;;;19.50;52.30;;;;;;5034854;28;20033;-89
2022/08/10 03:16:43;;;;;;;3.25;2.22;;;19.50;52.50;;;;;;5027168;28;20155;-89
2022/08/10 03:19:11;;;;;;;2.53;2.10;;;19.50;52.50;;;;;;5003696;28;20101;-93
2022/08/10 03:21:38;;;;;;;2.83;2.22;;;19.40;52.50;;;;;;5003494;28;20037;-92
2022/08/10 03:24:06;;;;;;;2.40;2.20;;;19.40;52.60;;;;;;5033872;28;20456;-88
2022/08/10 03:26:33;;;;;;;2.45;2.25;;;19.40;52.60;;;;;;5027051;28;20154;-89
2022/08/10 03:29:02;;;;;;;3.95;2.40;;;19.30;52.50;;;;;;5010865;28;20033;-87
2022/08/10 03:31:30;;;;;;;2.92;1.98;;;19.30;52.60;;;;;;5042028;28;20041;-88
2022/08/10 03:33:58;;;;;;;2.53;1.75;;;19.30;52.70;;;;;;5023148;28;20136;-90
2022/08/10 03:36:24;;;;;;;2.33;2.13;;;19.30;52.80;;;;;;5011571;28;20356;-88
2022/08/10 03:38:51;;;;;;;3.45;2.80;;;19.20;52.70;;;;;;5001070;28;20025;-90
2022/08/10 03:41:49;;;;;;;2.45;2.22;;;19.20;52.80;;;;;;4996975;28;20033;-90
2022/08/10 03:44:20;;;;;;;3.28;2.17;;;19.10;52.80;;;;;;5003978;28;20021;-90
2022/08/10 03:46:48;;;;;;;3.15;2.35;;;19.10;52.70;;;;;;5018410;28;20037;-89
2022/08/10 03:49:17;;;;;;;3.25;2.28;;;19.00;52.70;;;;;;5024855;28;20033;-87
2022/08/10 03:51:44;;;;;;;3.05;2.13;;;19.00;52.70;;;;;;5016711;28;20030;-89
2022/08/10 03:54:10;;;;;;;3.42;2.75;;;19.00;52.80;;;;;;5020524;28;20446;-87
2022/08/10 03:56:38;;;;;;;3.30;2.10;;;18.90;52.70;;;;;;5029316;28;20045;-90
2022/08/10 03:59:07;;;;;;;3.20;2.17;;;18.90;52.80;;;;;;4998881;28;20033;-88
2022/08/10 04:01:34;;;;;;;2.13;2.03;;;18.80;52.80;;;;;;5002834;28;20036;-90
2022/08/10 04:04:00;;;;;;;3.63;2.22;;;18.80;52.90;;;;;;5029498;28;20036;-87
2022/08/10 04:06:26;;;;;;;2.50;2.30;;;18.70;52.80;;;;;;5031264;28;20028;-92
2022/08/10 04:08:52;;;;;;;2.53;2.00;;;18.70;52.90;;;;;;5034615;28;20131;-90
2022/08/10 04:11:18;;;;;;;2.40;2.20;;;18.70;53.00;;;;;;4992517;28;20752;-88
2022/08/10 04:13:45;;;;;;;2.67;2.35;;;18.70;53.10;;;;;;5001805;28;20124;-90
2022/08/10 04:16:11;;;;;;;3.22;2.22;;;18.60;53.00;;;;;;5021438;28;20407;-89
2022/08/10 04:18:37;;;;;;;3.42;2.70;;;18.60;53.10;;;;;;5027530;28;20033;-89
2022/08/10 04:21:11;;;;;;;2.67;2.20;;;18.50;52.90;;;;;;5028348;28;20033;-88
2022/08/10 04:23:42;;;;;;;3.10;2.10;;;18.50;53.10;;;;;;5014194;28;20460;-88
2022/08/10 04:26:09;;;;;;;2.63;2.30;;;18.50;53.20;;;;;;4993451;28;20033;-89
2022/08/10 04:28:35;;;;;;;6.82;2.60;;;18.50;53.30;;;;;;5027819;28;20384;-87
2022/08/10 04:31:05;;;;;;;3.05;2.28;;;18.40;53.20;;;;;;5027781;28;20030;-88
2022/08/10 04:33:32;;;;;;;3.58;2.53;;;18.40;53.30;;;;;;5017797;28;20013;-88
2022/08/10 04:35:59;;;;;;;3.70;2.67;;;18.40;53.30;;;;;;5000182;28;20044;-88
2022/08/10 04:38:27;;;;;;;2.90;2.33;;;18.30;53.20;;;;;;5030799;28;20078;-91
2022/08/10 04:40:54;;;;;;;3.33;2.70;;;18.30;53.30;;;;;;5031753;28;20072;-89
2022/08/10 04:43:20;;;;;;;2.58;2.22;;;18.30;53.40;;;;;;5029435;28;20033;-91
2022/08/10 04:45:46;;;;;;;3.53;2.40;;;18.30;53.50;;;;;;5019608;28;20033;-91
2022/08/10 04:48:14;;;;;;;3.67;2.60;;;18.30;53.50;;;;;;5027740;28;20033;-90
2022/08/10 04:50:41;;;;;;;3.15;2.80;;;18.20;53.40;;;;;;5000186;28;20107;-87
2022/08/10 04:53:07;;;;;;;5.32;2.30;;;18.20;53.50;;;;;;5017601;28;20506;-86
2022/08/10 04:55:33;;;;;;;2.50;2.28;;;18.20;53.50;;;;;;5010544;28;20029;-87
2022/08/10 04:57:59;;;;;;;3.15;2.83;;;18.20;53.60;;;;;;5007617;28;20038;-87
2022/08/10 05:00:25;;;;;;;3.53;2.35;;;18.20;53.70;;;;;;4993712;28;20742;-86
2022/08/10 05:02:51;;;;;;;2.63;2.40;;;18.10;53.50;;;;;;5026937;28;20112;-88
2022/08/10 05:05:17;;;;;;;2.92;2.45;;;18.10;53.70;;;;;;5007927;28;20060;-87
2022/08/10 05:07:43;;;;;;;2.50;2.25;;;18.10;53.70;;;;;;5030653;28;20033;-86
2022/08/10 05:10:09;;;;;;;4.72;2.85;;;18.10;53.80;;;;;;5012117;28;20022;-87
2022/08/10 05:12:37;;;;;;;6.10;3.13;;;18.00;53.70;;;;;;5027513;28;20037;-85
2022/08/10 05:15:08;;;;;;;2.78;2.58;;;18.10;53.90;;;;;;4990660;28;20048;-88
2022/08/10 05:17:36;;;;;;;3.67;2.92;;;18.00;53.80;;;;;;5025761;28;20033;-92
2022/08/10 05:20:07;;;;;;;2.75;2.55;;;18.00;53.80;;;;;;5014714;28;20365;-92
2022/08/10 05:22:35;;;;;;;5.80;2.88;;;18.00;53.90;;;;;;4996433;28;20420;-89
2022/08/10 05:25:01;;;;;;;3.72;3.03;;;18.00;53.90;;;;;;5031383;28;20448;-92
2022/08/10 05:27:27;;;;;;;6.38;2.33;;;18.00;53.90;;;;;;5038385;28;20038;-91
2022/08/10 05:29:53;;;;;;;3.22;2.92;;;18.00;53.90;;;;;;5035868;28;20024;-93
2022/08/10 05:32:20;;;;;;;3.50;3.20;;;18.00;54.00;;;;;;5013479;28;20215;-87
2022/08/10 05:34:46;;;;;;;3.25;2.35;;;18.00;54.10;;;;;;5024651;28;20048;-87
2022/08/10 05:37:13;;;;;;;3.50;2.53;;;18.00;54.10;;;;;;5027597;28;20027;-94
2022/08/10 05:39:40;;;;;;;2.78;2.42;;;18.00;54.30;;;;;;5000220;28;20132;-94
2022/08/10 05:42:07;;;;;;;4.47;2.63;;;18.10;54.80;;;;;;5008731;28;20085;-95
2022/08/10 05:44:33;;;;;;;2.63;2.42;;;18.10;54.90;;;;;;5033624;28;20463;-93
2022/08/10 05:46:59;;;;;;;4.82;2.70;;;18.20;55.10;;;;;;5017945;28;20048;-91
2022/08/10 05:49:25;;;;;;;4.72;2.90;;;18.20;55.30;;;;;;5011526;28;20041;-93
2022/08/10 05:51:52;;;;;;;3.60;2.97;;;18.30;56.10;;;;;;5005213;28;20034;-94
2022/08/10 05:54:18;;;;;;;6.68;3.63;;;18.40;56.70;;;;;;5017971;28;20447;-89
2022/08/10 05:56:46;;;;;;;4.10;2.78;;;18.50;57.00;;;;;;4992765;28;20037;-93
2022/08/10 05:59:15;;;;;;;4.05;3.65;;;18.50;57.30;;;;;;5028839;28;20041;-95
2022/08/10 06:01:43;;;;;;;5.70;3.33;;;18.60;57.90;;;;;;5027971;28;20175;-95
2022/08/10 06:04:16;;;;;;;3.63;3.17;;;18.70;58.60;;;;;;5021999;28;20041;-95
2022/08/10 06:06:44;;;;;;;;;;;18.90;59.50;;;;;;5017179;28;20036;-93
2022/08/10 06:09:11;;;;;;;3.95;3.42;;;19.00;59.20;;;;;;5036335;28;19993;-95
2022/08/10 06:11:37;;;;;;;4.13;3.35;;;19.20;59.10;;;;;;4997600;28;20037;-88
2022/08/10 06:16:51;;;;;;;4.60;3.55;;;19.80;60.20;;;;;;5012514;28;20033;-88
2022/08/10 06:19:17;;;;;;;5.72;3.40;;;20.00;60.30;;;;;;5030178;28;20125;-88
2022/08/10 06:21:44;;;;;;;5.25;2.78;;;20.40;61.00;;;;;;5016402;28;20435;-89
2022/08/10 06:24:11;;;;;;;5.63;2.67;;;20.80;61.60;;;;;;5037833;28;20475;-96
2022/08/10 06:26:37;;;;;;;5.20;2.60;;;21.30;62.10;;;;;;4993688;28;20146;-90
2022/08/10 06:29:11;;;;;;;5.13;3.22;;;21.80;62.20;;;;;;5038455;28;20100;-96
2022/08/10 06:31:41;;;;;;;7.70;4.07;;;22.20;61.30;;;;;;4985618;28;20029;-96
2022/08/10 06:34:10;;;;;;;6.90;3.40;;;22.40;60.10;;;;;;5023887;28;20111;-94
2022/08/10 06:36:38;;;;;;;3.35;2.95;;;22.60;59.40;;;;;;5037628;28;20097;-95
2022/08/10 06:39:05;;;;;;;6.45;2.67;;;22.70;58.80;;;;;;5047094;28;20032;-96
2022/08/10 06:41:34;;;;;;;5.38;3.03;;;22.90;58.30;;;;;;5038571;28;20041;-96
2022/08/10 06:44:10;;;;;;;5.35;3.15;;;23.20;57.90;;;;;;5039276;28;20163;-96
2022/08/10 06:46:43;;;;;;;4.65;2.88;;;23.40;57.40;;;;;;5017353;28;20057;-96
2022/08/10 06:49:10;;;;;;;3.63;2.92;;;23.60;57.00;;;;;;5037171;28;20041;-92
2022/08/10 06:51:39;;;;;;;6.45;3.40;;;23.80;56.70;;;;;;5025202;28;20033;-94
2022/08/10 06:54:08;;;;;;;8.82;3.45;;;24.10;56.50;;;;;;5020774;28;20052;-95
2022/08/10 06:56:39;;;;;;;4.03;2.65;;;24.40;56.30;;;;;;5050076;28;20366;-91
2022/08/10 06:59:15;;;;;;;5.30;3.35;;;24.70;56.10;;;;;;5024556;28;20109;-90
2022/08/10 07:01:47;;;;;;;5.90;3.40;;;25.00;55.70;;;;;;5053385;28;20041;-89
2022/08/10 07:04:39;;;;;;;5.75;3.47;;;25.40;54.90;;;;;;5025707;28;20049;-89
2022/08/10 07:07:08;;;;;;;5.28;2.70;;;25.70;54.00;;;;;;4995238;28;20151;-90
2022/08/10 07:09:36;;;;;;;5.55;2.78;;;26.00;53.60;;;;;;5047021;28;20081;-87
2022/08/10 07:12:05;;;;;;;6.75;3.03;;;26.20;53.20;;;;;;5056969;28;20048;-84
2022/08/10 07:14:33;;;;;;;4.50;2.72;;;26.40;52.80;;;;;;5031830;28;20052;-86
2022/08/10 07:17:00;;;;;;;6.40;2.38;;;26.60;52.50;;;;;;5005973;28;20143;-94
2022/08/10 07:19:28;;;;;;;6.35;2.55;;;26.70;52.00;;;;;;5036293;28;20041;-93
2022/08/10 07:21:54;;;;;;;12.32;2.30;;;26.90;51.60;;;;;;5044728;28;20052;-93
2022/08/10 07:24:22;;;;;;;4.43;2.40;;;27.10;51.10;;;;;;5019379;28;20084;-94
2022/08/10 07:26:53;;;;;;;4.22;2.60;;;27.40;50.50;;;;;;4999829;28;20108;-96
2022/08/10 07:29:25;;;;;;;4.32;2.67;;;27.80;49.70;;;;;;5049392;28;20112;-92
2022/08/10 07:31:52;;;;;;;5.50;2.38;;;28.10;49.10;;;;;;5030302;28;20022;-95
2022/08/10 07:34:20;;;;;;;5.63;2.10;;;28.30;48.50;;;;;;5050620;28;20068;-94
2022/08/10 07:36:55;;;;;;;4.07;2.28;;;28.40;48.00;;;;;;5037945;28;20102;-96
2022/08/10 07:39:23;;;;;;;5.28;1.90;;;28.60;47.40;;;;;;4998825;28;20125;-93
2022/08/10 07:41:51;;;;;;;5.03;2.20;;;28.70;47.20;;;;;;5018349;28;20029;-95
2022/08/10 07:44:19;;;;;;;4.18;2.05;;;28.70;47.00;;;;;;5030383;28;20109;-96
2022/08/10 07:46:48;;;;;;;5.38;2.20;;;28.60;46.90;;;;;;5018776;28;20083;-86
2022/08/10 07:49:19;;;;;;;4.93;2.10;;;28.50;46.90;;;;;;5024047;28;20037;-89
2022/08/10 07:51:49;;;;;;;6.20;1.98;;;28.40;46.80;;;;;;5027065;28;20021;-88
2022/08/10 07:54:16;;;;;;;3.53;1.73;;;28.30;46.80;;;;;;5012933;28;20041;-90
2022/08/10 07:56:47;;;;;;;2.72;1.67;;;28.20;46.80;;;;;;5026320;28;20042;-89
2022/08/10 07:59:24;;;;;;;5.53;2.28;;;28.20;46.70;;;;;;5009509;28;20029;-89
2022/08/10 08:01:54;;;;;;;3.25;1.60;;;28.10;46.50;;;;;;5009932;28;20083;-87
2022/08/10 08:04:23;;;;;;;3.05;1.55;;;28.00;46.40;;;;;;5000759;28;20029;-88
2022/08/10 08:06:51;;;;;;;3.63;1.98;;;28.00;46.10;;;;;;5027087;28;20174;-83
2022/08/10 08:09:19;;;;;;;5.90;1.92;;;28.00;45.90;;;;;;5016703;28;20043;-86
2022/08/10 08:11:46;;;;;;;4.75;1.95;;;27.90;45.60;;;;;;4993164;28;20404;-95
2022/08/10 08:14:14;;;;;;;6.10;2.42;;;27.90;45.00;;;;;;5022276;28;20089;-95
2022/08/10 08:16:50;;;;;;;3.38;1.92;;;28.00;44.50;;;;;;5006207;28;20174;-93
2022/08/10 08:19:18;;;;;;;3.45;2.00;;;28.10;43.80;;;;;;5011658;28;20485;-87
2022/08/10 08:21:45;;;;;;;5.07;1.70;;;28.20;43.70;;;;;;5027547;28;20142;-95
2022/08/10 08:24:14;;;;;;;3.97;1.92;;;28.10;43.70;;;;;;5004397;28;20575;-96
2022/08/10 08:26:41;;;;;;;4.03;2.22;;;28.00;43.80;;;;;;5019058;28;20108;-95
2022/08/10 08:29:11;;;;;;;3.55;2.05;;;27.70;43.90;;;;;;5033546;28;20053;-94
2022/08/10 08:31:38;;;;;;;4.00;2.20;;;27.40;44.00;;;;;;5030978;28;20045;-93
2022/08/10 08:34:06;;;;;;;3.55;1.90;;;27.30;44.30;;;;;;5014344;28;20021;-91
2022/08/10 08:36:34;;;;;;;4.32;1.65;;;27.00;44.30;;;;;;5013397;28;20038;-90
2022/08/10 08:39:00;;;;;;;5.90;1.92;;;26.90;44.50;;;;;;4998148;28;20040;-89
2022/08/10 08:41:32;;;;;;;6.15;2.55;;;26.70;44.50;;;;;;5034624;28;20408;-90
2022/08/10 08:44:10;;;;;;;3.60;1.88;;;26.60;44.60;;;;;;5020371;28;20032;-96
2022/08/10 08:46:52;;;;;;;3.58;1.48;;;26.50;44.50;;;;;;5012187;28;20033;-92
2022/08/10 08:49:24;;;;;;;2.95;1.90;;;26.40;44.50;;;;;;5029904;28;20049;-93
2022/08/10 08:52:34;;;;;;;2.93;1.60;;;26.30;44.60;;;;;;5010981;28;20083;-92
2022/08/10 08:55:17;;;;;;;6.68;2.22;;;26.20;44.50;;;;;;5021758;28;20036;-92
2022/08/10 08:58:05;;;;;;;3.83;1.40;;;26.20;44.70;;;;;;5001656;28;20436;-93
2022/08/10 09:00:55;;;;;;;4.47;2.05;;;26.20;44.60;;;;;;4986419;28;20029;-90
2022/08/10 09:03:53;;;;;;;2.85;1.55;;;26.20;44.50;;;;;;5012737;28;20686;-87
2022/08/10 09:06:50;;;;;;;6.00;1.73;;;26.20;44.50;;;;;;5004478;28;20057;-93
2022/08/10 09:09:28;;;;;;;3.60;1.65;;;26.30;44.50;;;;;;4990771;28;20041;-90
2022/08/10 09:12:09;;;;;;;3.55;1.80;;;26.40;44.50;;;;;;5029812;28;20028;-90
2022/08/10 09:15:02;;;;;;;4.88;1.90;;;26.40;44.30;;;;;;5021571;28;20094;-90
2022/08/10 09:17:38;;;;;;;;;;;26.50;43.90;;;;;;5014519;28;20005;-94
2022/08/10 09:20:18;;;;;;;4.97;2.40;;;26.60;44.10;;;;;;5057810;28;19947;-96
2022/08/10 09:23:23;;;;;;;2.55;1.42;;;26.70;44.60;;;;;;5017493;28;20046;-87
2022/08/10 09:26:06;;;;;;;5.55;1.60;;;26.70;43.60;;;;;;5010323;28;20114;-96
2022/08/10 09:28:39;;;;;;;5.22;1.75;;;26.80;43.50;;;;;;5008492;28;20053;-88
2022/08/10 09:31:06;;;;;;;3.65;2.00;;;26.90;43.30;;;;;;5001331;28;20075;-89
2022/08/10 09:34:14;;;;;;;3.78;1.70;;;26.90;43.10;;;;;;5006753;28;20048;-86
2022/08/10 09:37:04;;;;;;;8.85;1.50;;;27.00;42.50;;;;;;5022203;28;20136;-91
2022/08/10 09:39:47;;;;;;;2.30;1.05;;;27.00;42.30;;;;;;5008190;28;20048;-90
2022/08/10 09:42:32;;;;;;;7.78;1.33;;;27.10;42.10;;;;;;5024639;28;20048;-89
2022/08/10 09:45:04;;;;;;;2.53;1.23;;;27.20;42.20;;;;;;5009812;28;20029;-88
2022/08/10 09:47:58;;;;;;;5.15;1.58;;;27.20;41.60;;;;;;5001941;28;20326;-91
2022/08/10 09:50:31;;;;;;;3.90;1.17;;;27.30;41.20;;;;;;5004315;28;20033;-89
2022/08/10 09:53:42;;;;;;;2.47;1.40;;;27.30;41.10;;;;;;4995957;28;20037;-91
2022/08/10 09:56:27;;;;;;;3.30;1.20;;;27.40;40.70;;;;;;4980354;28;20094;-89
2022/08/10 09:59:18;;;;;;;5.43;1.13;;;27.50;40.70;;;;;;4993256;28;20042;-84
2022/08/10 10:02:17;;;;;;;3.80;1.20;;;27.50;40.20;;;;;;4998873;28;20501;-89
2022/08/10 10:05:01;;;;;;;6.90;1.50;;;27.60;39.80;;;;;;5007983;28;20235;-91
2022/08/10 10:07:29;;;;;;;2.22;1.17;;;27.70;39.80;;;;;;5030372;28;20045;-87
2022/08/10 10:10:22;;;;;;;2.42;1.20;;;27.70;39.70;;;;;;5017746;28;20442;-88
2022/08/10 10:13:02;;;;;;;1.75;1.20;;;27.80;39.00;;;;;;5015948;28;20029;-90
2022/08/10 10:15:34;;;;;;;2.00;1.20;;;27.90;39.10;;;;;;5018417;28;20044;-90
2022/08/10 10:18:17;;;;;;;5.45;1.35;;;27.90;38.80;;;;;;5018604;28;20041;-91
2022/08/10 10:21:19;;;;;;;3.53;1.90;;;28.00;38.60;;;;;;5005176;28;20034;-91
2022/08/10 10:24:10;;;;;;;4.78;1.35;;;28.10;38.40;;;;;;5027610;28;20515;-90
2022/08/10 10:26:47;;;;;;;2.72;1.35;;;28.10;38.30;;;;;;5016224;28;20044;-91
2022/08/10 10:29:42;;;;;;;2.40;1.17;;;28.20;38.30;;;;;;5008860;28;20488;-93
2022/08/10 10:32:50;;;;;;;3.13;1.35;;;28.30;37.80;;;;;;4996830;28;20033;-86
2022/08/10 10:35:37;;;;;;;3.03;1.42;;;28.40;37.60;;;;;;4976589;28;20268;-87
2022/08/10 10:38:10;;;;;;;2.65;1.58;;;28.40;37.30;;;;;;5028397;28;20068;-88
2022/08/10 10:41:05;;;;;;;3.97;2.00;;;28.40;37.40;;;;;;4999019;28;20037;-85
2022/08/10 10:44:08;;;;;;;2.22;1.13;;;28.50;37.00;;;;;;4999636;28;20383;-86
2022/08/10 10:46:53;;;;;;;3.00;1.52;;;28.50;36.90;;;;;;5016128;28;20427;-89
2022/08/10 10:49:39;;;;;;;3.45;1.38;;;28.70;37.20;;;;;;5028347;28;20041;-93
2022/08/10 10:52:37;;;;;;;2.15;1.17;;;28.80;36.90;;;;;;5009924;28;20033;-88
2022/08/10 10:55:09;;;;;;;3.92;1.38;;;28.80;36.60;;;;;;5013916;28;20051;-87
2022/08/10 10:57:51;;;;;;;7.05;1.35;;;29.00;36.80;;;;;;5010513;28;20058;-84
2022/08/10 11:00:22;;;;;;;3.42;1.55;;;29.00;36.40;;;;;;5000372;28;20025;-83
2022/08/10 11:02:48;;;;;;;3.92;1.67;;;29.10;36.50;;;;;;5007308;28;20235;-82
2022/08/10 11:05:32;;;;;;;1.77;1.30;;;29.10;36.30;;;;;;5027405;28;20040;-84
2022/08/10 11:08:15;;;;;;;5.40;1.42;;;29.30;35.90;;;;;;5003761;28;20050;-83
2022/08/10 11:10:51;;;;;;;5.60;2.17;;;29.30;35.70;;;;;;5016414;28;20021;-84
2022/08/10 11:13:39;;;;;;;2.85;1.50;;;29.40;35.60;;;;;;5006794;28;20109;-85
2022/08/10 11:16:19;;;;;;;2.55;1.42;;;29.50;35.30;;;;;;4999569;28;20033;-83
2022/08/10 11:18:54;;;;;;;1.98;1.52;;;29.60;35.40;;;;;;5026201;28;20025;-84
2022/08/10 11:21:48;;;;;;;2.35;1.42;;;29.60;35.20;;;;;;5013959;28;20110;-83
2022/08/10 11:24:31;;;;;;;4.05;1.40;;;29.70;34.80;;;;;;5007327;28;20025;-85
2022/08/10 11:27:07;;;;;;;2.70;1.58;;;29.80;34.70;;;;;;4991107;28;20036;-84
2022/08/10 11:29:43;;;;;;;5.85;1.90;;;29.90;34.70;;;;;;5012108;28;20447;-87
2022/08/10 11:32:25;;;;;;;2.38;1.35;;;30.00;34.40;;;;;;5015456;28;20025;-81
2022/08/10 11:35:11;;;;;;;2.75;1.33;;;30.00;34.00;;;;;;5013077;28;20140;-80
2022/08/10 11:37:50;;;;;;;4.93;1.35;;;30.10;33.70;;;;;;5007689;28;20041;-83
2022/08/10 11:40:26;;;;;;;2.67;0.93;;;30.10;33.60;;;;;;5009489;28;20032;-81
2022/08/10 11:43:21;;;;;;;4.82;1.60;;;30.10;33.50;;;;;;5021483;28;20407;-83
2022/08/10 11:46:28;;;;;;;3.75;1.40;;;30.10;33.30;;;;;;5029203;28;20029;-81
2022/08/10 11:49:27;;;;;;;3.38;1.30;;;30.30;33.30;;;;;;4939274;28;20423;-82
2022/08/10 11:51:58;;;;;;;4.65;1.40;;;30.30;33.10;;;;;;4988734;28;20041;-84
2022/08/10 11:54:44;;;;;;;3.07;1.23;;;30.40;33.10;;;;;;5025992;28;20049;-83
2022/08/10 11:57:11;;;;;;;4.07;2.08;;;30.50;32.60;;;;;;4997544;28;20042;-84
2022/08/10 11:59:57;;;;;;;4.15;1.50;;;30.50;32.70;;;;;;5025901;28;20388;-89
2022/08/10 12:02:43;;;;;;;1.58;1.02;;;30.60;32.40;;;;;;5009561;28;20392;-87
2022/08/10 12:05:14;;;;;;;4.90;1.15;;;30.60;32.00;;;;;;5014668;28;20258;-87
2022/08/10 12:07:44;;;;;;;3.20;1.33;;;30.70;32.90;;;;;;5001590;28;20045;-89
2022/08/10 12:10:12;;;;;;;3.50;1.20;;;30.80;32.20;;;;;;5013674;28;20022;-87
2022/08/10 12:12:44;;;;;;;4.43;1.00;;;30.90;32.20;;;;;;4990931;28;20094;-85
2022/08/10 12:15:18;;;;;;;2.38;1.05;;;30.90;31.90;;;;;;5032246;28;20025;-90
2022/08/10 12:17:52;;;;;;;6.47;1.50;;;31.00;31.80;;;;;;5003351;28;20041;-86
2022/08/10 12:20:35;;;;;;;2.72;1.17;;;31.10;31.70;;;;;;5005365;28;20045;-84
2022/08/10 12:23:35;;;;;;;4.75;1.30;;;31.20;31.40;;;;;;5025351;28;20523;-83
2022/08/10 12:26:12;;;;;;;1.27;1.13;;;31.20;31.30;;;;;;4987123;28;20022;-82
2022/08/10 12:28:45;;;;;;;4.25;1.02;;;31.40;31.50;;;;;;4996298;28;20037;-86
2022/08/10 12:31:14;;;;;;;2.28;1.20;;;31.50;31.50;;;;;;4994535;28;20025;-83
2022/08/10 12:33:49;;;;;;;4.18;2.00;;;31.70;31.60;;;;;;4957745;28;20503;-86
2022/08/10 12:36:25;;;;;;;4.35;0.98;;;31.90;31.50;;;;;;5013235;28;20375;-85
2022/08/10 12:39:17;;;;;;;1.50;0.90;;;31.90;31.30;;;;;;5028526;28;20488;-85
2022/08/10 12:41:59;;;;;;;2.50;1.00;;;32.10;31.20;;;;;;5012818;28;20037;-83
2022/08/10 12:44:38;;;;;;;2.92;0.90;;;32.20;31.10;;;;;;5008365;28;20044;-84
2022/08/10 12:47:35;;;;;;;1.73;1.10;;;32.30;31.10;;;;;;5024709;28;20243;-85
2022/08/10 12:50:19;;;;;;;3.33;1.42;;;32.40;31.10;;;;;;4994154;28;20021;-84
2022/08/10 12:52:56;;;;;;;1.95;1.13;;;32.50;31.50;;;;;;5023927;28;20423;-83
2022/08/10 12:55:23;;;;;;;3.90;1.35;;;32.60;30.80;;;;;;5026155;28;20703;-84
2022/08/10 12:57:54;;;;;;;1.10;0.90;;;32.70;30.70;;;;;;5007019;28;20049;-84
2022/08/10 13:00:30;;;;;;;2.58;1.10;;;32.80;30.60;;;;;;5021832;28;20384;-83
2022/08/10 13:03:00;;;;;;;1.52;0.70;;;32.90;30.40;;;;;;5023019;28;20071;-83
2022/08/10 13:05:28;;;;;;;1.35;0.98;;;33.00;30.30;;;;;;4999092;28;20074;-84
2022/08/10 13:11:02;;;;;;;1.30;0.90;;;33.20;30.00;;;;;;4994265;28;20056;-83
2022/08/10 13:13:32;;;;;;;1.65;0.90;;;33.40;30.00;;;;;;5021056;28;20045;-83
2022/08/10 13:15:59;;;;;;;1.15;0.70;;;33.60;30.00;;;;;;4995831;28;20477;-82
2022/08/10 13:18:32;;;;;;;2.13;1.40;;;33.70;29.90;;;;;;5022058;28;20082;-84
2022/08/10 13:21:06;;;;;;;1.40;0.80;;;33.90;29.70;;;;;;4991353;28;20717;-82
2022/08/10 13:23:40;;;;;;;2.17;0.95;;;34.00;29.70;;;;;;4994461;28;20026;-83
2022/08/10 13:26:10;;;;;;;2.17;0.88;;;34.20;29.70;;;;;;5054405;28;20225;-85
2022/08/10 13:28:51;;;;;;;1.52;0.63;;;34.30;29.60;;;;;;5043460;28;20040;-86
2022/08/10 13:31:21;;;;;;;9.38;1.40;;;34.60;29.50;;;;;;5050629;28;20044;-83